Time;durP1;ratioP1;P1;durP2;ratioP2;P2;SDS_P1;SDS_P2;PMS_P1;PMS_P2;Temp;Humidity;BMP_temperature;BMP_pressure;BME280_temperature;BME280_humidity;BME280_pressure;Samples;Min_cycle;Max_cycle;Signal;HPM_P1;HPM_P2
2022/05/29 00:01:41;;;;;;;4.70;1.92;;;;;;;12.45;48.62;101746.50;4992859;28;113754;-62
2022/05/29 00:04:09;;;;;;;3.90;1.45;;;;;;;12.48;48.94;101743.75;4992268;28;124440;-62
2022/05/29 00:06:43;;;;;;;4.07;1.65;;;;;;;12.51;49.02;101743.63;4994320;28;122984;-62
2022/05/29 00:09:16;;;;;;;7.95;2.10;;;;;;;12.51;49.11;101743.63;4989131;28;115294;-62
2022/05/29 00:11:44;;;;;;;4.28;1.67;;;;;;;12.53;48.98;101736.47;4991302;28;115217;-62
2022/05/29 00:14:11;;;;;;;7.03;2.10;;;;;;;12.56;49.13;101746.97;4992067;28;124426;-61
2022/05/29 00:16:38;;;;;;;6.03;1.80;;;;;;;12.58;49.27;101742.47;4992668;28;124366;-62
2022/05/29 00:19:05;;;;;;;5.45;1.60;;;;;;;12.60;49.14;101737.97;4990824;28;114566;-62
2022/05/29 00:21:35;;;;;;;4.38;1.65;;;;;;;12.62;49.62;101735.22;4990954;28;113810;-62
2022/05/29 00:24:03;;;;;;;5.28;1.70;;;;;;;12.64;49.31;101730.75;4996769;28;123957;-62
2022/05/29 00:26:30;;;;;;;6.57;1.85;;;;;;;12.64;49.37;101728.94;4989135;28;124388;-62
2022/05/29 00:28:57;;;;;;;6.03;1.85;;;;;;;12.66;49.47;101720.91;4991571;28;114178;-61
2022/05/29 00:31:24;;;;;;;4.93;1.98;;;;;;;12.68;49.33;101718.16;4993114;28;114355;-62
2022/05/29 00:33:52;;;;;;;6.03;1.80;;;;;;;12.71;49.46;101712.75;4988816;28;124054;-62
2022/05/29 00:36:19;;;;;;;5.82;2.20;;;;;;;12.73;49.57;101716.19;4989626;28;123905;-62
2022/05/29 00:38:48;;;;;;;5.25;1.70;;;;;;;12.74;49.75;101712.63;4990801;28;114632;-62
2022/05/29 00:41:26;;;;;;;7.88;1.70;;;;;;;12.75;49.64;101709.03;4996002;28;113592;-62
2022/05/29 00:44:23;;;;;;;5.05;1.98;;;;;;;12.73;49.56;101710.88;4989536;28;124162;-62
2022/05/29 00:47:04;;;;;;;6.45;2.05;;;;;;;12.73;49.73;101705.56;4989502;28;123460;-62
2022/05/29 00:49:34;;;;;;;4.38;1.73;;;;;;;12.74;49.62;101702.00;4987969;28;114296;-62
2022/05/29 00:52:07;;;;;;;6.72;1.50;;;;;;;12.75;49.93;101695.75;4994273;28;113826;-62
2022/05/29 00:54:43;;;;;;;5.15;1.90;;;;;;;12.74;49.75;101696.69;4988885;28;124541;-62
2022/05/29 00:57:17;;;;;;;5.50;1.70;;;;;;;12.74;49.79;101686.91;4995157;28;125199;-62
2022/05/29 00:59:45;;;;;;;3.17;1.50;;;;;;;12.74;49.82;101691.38;4990988;28;115182;-62
2022/05/29 01:02:12;;;;;;;4.18;1.65;;;;;;;12.73;49.83;101694.94;4991698;28;114875;-62
2022/05/29 01:04:42;;;;;;;6.00;2.00;;;;;;;12.72;49.99;101693.22;4989216;28;124499;-62
2022/05/29 01:07:14;;;;;;;4.90;1.80;;;;;;;12.71;49.93;101691.47;4990207;28;124739;-62
2022/05/29 01:09:45;;;;;;;5.50;2.05;;;;;;;12.69;50.06;101683.56;4992315;28;114052;-61
2022/05/29 01:12:22;;;;;;;8.07;2.00;;;;;;;12.66;49.96;101684.56;4992994;28;114122;-61
2022/05/29 01:15:29;;;;;;;4.50;1.90;;;;;;;12.65;50.10;101682.81;4993436;28;124140;-65
2022/05/29 01:18:03;;;;;;;4.82;1.88;;;;;;;12.66;50.28;101679.25;4992556;28;122812;-61
2022/05/29 01:20:49;;;;;;;5.43;1.90;;;;;;;12.65;50.26;101677.50;4988560;28;114290;-61
2022/05/29 01:23:34;;;;;;;6.63;2.95;;;;;;;12.65;50.17;101677.50;4989243;28;113964;-61
2022/05/29 01:26:29;;;;;;;8.63;2.20;;;;;;;12.64;50.34;101678.44;4992120;28;124893;-61
2022/05/29 01:29:00;;;;;;;5.75;2.20;;;;;;;12.63;50.19;101673.19;4988974;28;124691;-61
2022/05/29 01:31:31;;;;;;;5.38;2.45;;;;;;;12.63;50.57;101668.72;4987371;28;114560;-61
2022/05/29 01:34:20;;;;;;;6.90;2.38;;;;;;;12.65;50.61;101672.19;4989324;28;114026;-63
2022/05/29 01:37:02;;;;;;;4.88;2.20;;;;;;;12.68;50.76;101665.00;4989269;28;124322;-60
2022/05/29 01:39:38;;;;;;;5.03;2.40;;;;;;;12.70;50.50;101671.16;4989325;28;124096;-60
2022/05/29 01:42:21;;;;;;;6.07;3.25;;;;;;;12.72;50.69;101664.00;4994781;28;115761;-60
2022/05/29 01:44:59;;;;;;;8.52;2.70;;;;;;;12.75;50.68;101666.50;4988211;28;113929;-62
2022/05/29 01:47:49;;;;;;;5.75;2.88;;;;;;;12.76;50.84;101673.56;4988197;28;122234;-62
2022/05/29 01:50:25;;;;;;;8.43;2.65;;;;;;;12.77;50.79;101659.31;4992217;28;123963;-62
2022/05/29 01:53:02;;;;;;;7.82;2.80;;;;;;;12.77;50.84;101651.34;4997910;28;115033;-62
2022/05/29 01:55:58;;;;;;;5.32;2.42;;;;;;;12.79;50.66;101657.47;4990832;28;114796;-62
2022/05/29 01:58:32;;;;;;;;;;;;;;;12.79;50.25;101652.16;4991332;28;123760;-62
2022/05/29 02:01:03;;;;;;;5.18;2.55;;;;;;;12.83;50.60;101648.47;4990003;28;124036;-62
2022/05/29 02:03:34;;;;;;;6.78;3.15;;;;;;;12.88;50.73;101650.91;4991399;28;114641;-62
2022/05/29 02:06:16;;;;;;;5.35;2.90;;;;;;;12.92;50.65;101648.06;4988731;28;114258;-62
2022/05/29 02:08:53;;;;;;;9.98;3.00;;;;;;;12.94;50.69;101654.19;4988136;28;123859;-62
2022/05/29 02:11:25;;;;;;;8.18;2.80;;;;;;;12.96;50.79;101644.34;4988777;28;123879;-62
2022/05/29 02:13:54;;;;;;;5.70;2.60;;;;;;;12.99;50.99;101643.34;4989932;28;114162;-62
2022/05/29 02:16:31;;;;;;;8.90;2.83;;;;;;;13.02;51.04;101644.09;4989306;28;114184;-62
2022/05/29 02:19:09;;;;;;;6.30;2.83;;;;;;;13.04;51.04;101642.22;4987460;28;124122;-62
2022/05/29 02:22:03;;;;;;;5.00;2.55;;;;;;;13.04;50.97;101642.22;4990180;28;123017;-62
2022/05/29 02:24:39;;;;;;;8.20;2.80;;;;;;;13.05;50.90;101638.66;4995100;28;114521;-62
2022/05/29 02:27:26;;;;;;;7.40;2.63;;;;;;;13.08;51.10;101634.97;4990224;28;114228;-62
2022/05/29 02:29:56;;;;;;;4.38;2.78;;;;;;;13.09;51.15;101634.06;4991467;28;123657;-62
2022/05/29 02:32:36;;;;;;;5.30;2.33;;;;;;;13.11;51.02;101626.88;4990567;28;124485;-62
2022/05/29 02:35:21;;;;;;;5.60;2.38;;;;;;;13.14;51.20;101625.88;4990028;28;115269;-62
2022/05/29 02:38:14;;;;;;;6.03;2.60;;;;;;;13.15;51.06;101619.63;4988714;28;114669;-62
2022/05/29 02:41:03;;;;;;;4.85;2.65;;;;;;;13.18;50.97;101622.16;4986467;28;124413;-62
2022/05/29 02:43:42;;;;;;;6.05;2.63;;;;;;;13.18;51.10;101611.50;4991979;28;124295;-62
2022/05/29 02:46:24;;;;;;;7.55;2.58;;;;;;;13.16;51.02;101619.53;4987683;28;115438;-62
2022/05/29 02:49:13;;;;;;;5.32;2.70;;;;;;;13.16;51.16;101613.38;4988018;28;114908;-62
2022/05/29 02:51:50;;;;;;;9.60;2.60;;;;;;;13.18;51.08;101611.50;4989005;28;125192;-62
2022/05/29 02:54:25;;;;;;;11.18;2.65;;;;;;;13.20;51.38;101604.31;4991289;28;123866;-62
2022/05/29 02:56:53;;;;;;;5.97;2.58;;;;;;;13.21;51.15;101601.59;4987815;28;114283;-62
2022/05/29 02:59:23;;;;;;;6.60;2.53;;;;;;;13.22;51.41;101603.34;4988467;28;114031;-62
2022/05/29 03:02:11;;;;;;;5.90;2.30;;;;;;;13.22;51.46;101591.81;4993147;28;124266;-62
2022/05/29 03:04:41;;;;;;;5.55;2.50;;;;;;;13.21;51.27;101601.59;4977077;28;122849;-63
2022/05/29 03:07:26;;;;;;;5.80;2.58;;;;;;;13.23;51.56;101598.88;4981598;28;114241;-62
2022/05/29 03:10:27;;;;;;;6.03;2.58;;;;;;;13.22;51.27;101598.03;4994026;28;114017;-62
2022/05/29 03:13:11;;;;;;;7.43;2.42;;;;;;;13.23;51.20;101598.88;4970876;28;125212;-62
2022/05/29 03:16:04;;;;;;;5.63;2.67;;;;;;;13.24;51.49;101605.91;4981941;28;122963;-62
2022/05/29 03:19:04;;;;;;;5.22;2.13;;;;;;;13.24;51.42;101603.25;4989308;28;114663;-62
2022/05/29 03:21:47;;;;;;;5.63;2.53;;;;;;;13.25;51.32;101602.34;4992850;28;113826;-62
2022/05/29 03:24:33;;;;;;;7.80;2.50;;;;;;;13.26;51.48;101598.75;4993377;28;125732;-62
2022/05/29 03:27:36;;;;;;;5.65;2.50;;;;;;;13.25;51.63;101602.34;4991755;28;124380;-62
2022/05/29 03:30:06;;;;;;;7.47;2.38;;;;;;;13.24;51.40;101605.91;4989290;28;114349;-62
2022/05/29 03:32:35;;;;;;;6.82;2.65;;;;;;;13.22;51.42;101602.47;4992913;28;114012;-62
2022/05/29 03:35:25;;;;;;;5.70;2.72;;;;;;;13.21;51.77;101596.28;4992767;28;123750;-62
2022/05/29 03:37:53;;;;;;;5.25;2.60;;;;;;;13.22;51.65;101599.78;4989496;28;123788;-62
2022/05/29 03:40:21;;;;;;;8.73;3.10;;;;;;;13.20;51.71;101599.00;4993551;28;115454;-62
2022/05/29 03:42:48;;;;;;;6.40;2.50;;;;;;;13.18;51.82;101601.72;4987724;28;115005;-63
2022/05/29 03:45:16;;;;;;;6.25;2.90;;;;;;;13.19;51.95;101597.28;4991141;28;124154;-62
2022/05/29 03:47:43;;;;;;;7.10;2.78;;;;;;;13.18;51.82;101607.03;4991979;28;123756;-62
2022/05/29 03:50:14;;;;;;;12.02;2.85;;;;;;;13.17;52.13;101593.84;4991351;28;113964;-62
2022/05/29 03:52:43;;;;;;;6.53;3.20;;;;;;;13.15;52.26;101591.25;4992129;28;113922;-62
2022/05/29 03:55:11;;;;;;;6.35;2.78;;;;;;;13.14;52.35;101594.81;4990842;28;123918;-62
2022/05/29 03:57:38;;;;;;;8.43;2.72;;;;;;;13.14;52.41;101588.66;4988067;28;123748;-62
2022/05/29 04:00:09;;;;;;;5.78;2.80;;;;;;;13.14;52.56;101593.97;4993629;28;114290;-62
2022/05/29 04:02:40;;;;;;;6.03;2.72;;;;;;;13.15;52.48;101590.38;4993335;28;113952;-62
2022/05/29 04:05:08;;;;;;;5.93;2.80;;;;;;;13.18;52.75;101584.91;4989492;28;124294;-62
2022/05/29 04:13:08;;;;;;;7.25;2.45;;;;;;;13.14;52.05;101583.31;4993193;28;113693;-62
2022/05/29 04:15:41;;;;;;;4.82;2.83;;;;;;;13.13;52.44;101581.56;4990634;28;123902;-62
2022/05/29 04:18:08;;;;;;;6.35;2.67;;;;;;;13.13;52.70;101581.56;4992247;28;124538;-62
2022/05/29 04:20:35;;;;;;;6.60;2.92;;;;;;;13.14;52.80;101583.31;4988992;28;114797;-62
2022/05/29 04:23:02;;;;;;;8.15;2.90;;;;;;;13.16;52.91;101586.78;4996130;28;114259;-62
2022/05/29 04:25:30;;;;;;;6.57;2.60;;;;;;;13.18;53.13;101579.59;4990984;28;124030;-62
2022/05/29 04:27:57;;;;;;;8.13;2.75;;;;;;;13.21;53.21;101584.78;4991518;28;123953;-62
2022/05/29 04:30:24;;;;;;;6.40;2.97;;;;;;;13.23;53.27;101588.25;4991675;28;115286;-62
2022/05/29 04:33:00;;;;;;;9.75;2.90;;;;;;;13.22;53.15;101582.06;4992965;28;114945;-62
2022/05/29 04:35:37;;;;;;;9.38;3.17;;;;;;;13.19;53.41;101576.00;4989869;28;123953;-61
2022/05/29 04:38:06;;;;;;;6.70;2.80;;;;;;;13.19;53.17;101576.00;4992037;28;123921;-62
2022/05/29 04:40:35;;;;;;;7.38;2.85;;;;;;;13.19;53.26;101573.34;4992045;28;114059;-62
2022/05/29 04:43:03;;;;;;;7.32;2.88;;;;;;;13.21;53.49;101569.69;4990334;28;113822;-62
2022/05/29 04:45:31;;;;;;;6.45;3.00;;;;;;;13.22;53.66;101576.75;4995259;28;124056;-62
2022/05/29 04:47:58;;;;;;;8.93;2.70;;;;;;;13.21;53.86;101563.50;4992645;28;124649;-62
2022/05/29 04:50:25;;;;;;;6.78;3.08;;;;;;;13.23;54.01;101562.50;4990194;28;114002;-62
2022/05/29 04:52:52;;;;;;;6.10;2.80;;;;;;;13.24;53.98;101560.69;4994400;28;113852;-63
2022/05/29 04:55:21;;;;;;;7.13;2.75;;;;;;;13.26;54.03;101558.84;4990101;28;124130;-62
2022/05/29 04:57:48;;;;;;;5.25;1.95;;;;;;;13.28;53.99;101554.31;4991934;28;123852;-62
2022/05/29 05:00:16;;;;;;;7.28;2.55;;;;;;;13.30;53.86;101555.16;4989890;28;114082;-62
2022/05/29 05:02:43;;;;;;;5.55;2.25;;;;;;;13.34;54.02;101554.06;4987752;28;114201;-62
2022/05/29 05:05:12;;;;;;;4.90;2.40;;;;;;;13.36;54.07;101551.34;4994441;28;124261;-62
2022/05/29 05:07:39;;;;;;;4.80;2.28;;;;;;;13.38;54.34;101552.13;4990904;28;123990;-62
2022/05/29 05:10:11;;;;;;;5.50;2.35;;;;;;;13.40;54.39;101548.47;4994666;28;114736;-62
2022/05/29 05:12:39;;;;;;;5.68;2.20;;;;;;;13.45;54.24;101550.94;4995495;28;113771;-62
2022/05/29 05:15:07;;;;;;;7.70;2.70;;;;;;;13.48;54.30;101547.25;4988904;28;123859;-62
2022/05/29 05:17:35;;;;;;;5.65;2.30;;;;;;;13.53;54.47;101547.91;4989188;28;124319;-62
2022/05/29 05:20:03;;;;;;;2.97;2.00;;;;;;;13.56;54.54;101547.75;4988038;28;114950;-62
2022/05/29 05:22:31;;;;;;;5.82;2.47;;;;;;;13.60;54.46;101546.69;4992680;28;116683;-62
2022/05/29 05:24:59;;;;;;;5.20;2.38;;;;;;;13.65;54.64;101542.00;4991372;28;124067;-62
2022/05/29 05:27:27;;;;;;;3.53;1.90;;;;;;;13.68;54.54;101536.56;4988909;28;123937;-63
2022/05/29 05:29:54;;;;;;;6.90;2.20;;;;;;;13.72;54.49;101535.47;4989653;28;114558;-62
2022/05/29 05:32:21;;;;;;;4.88;1.92;;;;;;;13.76;54.69;101534.38;4992161;28;114269;-62
2022/05/29 05:34:48;;;;;;;5.47;1.80;;;;;;;13.81;54.83;101531.50;4987994;28;124308;-62
2022/05/29 05:37:16;;;;;;;5.78;2.17;;;;;;;13.86;54.74;101533.94;4992021;28;123931;-62
2022/05/29 05:39:44;;;;;;;3.97;1.90;;;;;;;13.92;54.69;101544.28;4992976;28;114138;-61
2022/05/29 05:42:11;;;;;;;5.28;1.95;;;;;;;13.95;54.70;101539.69;4993826;28;114042;-62
2022/05/29 05:44:38;;;;;;;6.68;1.83;;;;;;;13.97;54.82;101543.13;4986661;28;123861;-62
2022/05/29 05:47:07;;;;;;;6.32;2.10;;;;;;;14.00;54.65;101547.47;4989368;28;123708;-62
2022/05/29 05:49:36;;;;;;;4.97;1.70;;;;;;;14.01;54.57;101549.19;4989254;28;114399;-62
2022/05/29 05:52:03;;;;;;;6.22;2.00;;;;;;;14.01;54.47;101554.50;4988113;28;113675;-62
2022/05/29 05:54:32;;;;;;;3.05;1.55;;;;;;;14.00;54.57;101552.81;4989149;28;123906;-62
2022/05/29 05:57:00;;;;;;;4.97;1.70;;;;;;;14.02;54.46;101556.25;4988200;28;123724;-62
2022/05/29 05:59:27;;;;;;;5.07;1.70;;;;;;;14.04;54.51;101546.38;4976330;28;113473;-62
2022/05/29 06:01:54;;;;;;;3.55;1.40;;;;;;;14.09;54.54;101557.69;4990520;28;113676;-62
2022/05/29 06:04:21;;;;;;;3.80;1.70;;;;;;;14.14;54.58;101555.63;5003247;28;123747;-62
2022/05/29 06:06:49;;;;;;;5.47;1.50;;;;;;;14.20;54.57;101557.16;4995352;28;123922;-62
2022/05/29 06:09:17;;;;;;;2.75;1.10;;;;;;;14.26;54.59;101553.31;4993340;28;115831;-63
2022/05/29 06:11:44;;;;;;;2.42;1.60;;;;;;;14.32;54.62;101553.03;4981585;28;114920;-62
2022/05/29 06:14:11;;;;;;;1.73;1.25;;;;;;;14.39;54.71;101559.75;4988868;28;123749;-62
2022/05/29 06:16:38;;;;;;;2.70;1.30;;;;;;;14.43;54.71;101556.03;5002688;28;124232;-62
2022/05/29 06:19:06;;;;;;;2.78;1.35;;;;;;;14.50;54.66;101557.44;4987826;28;114270;-62
2022/05/29 06:21:34;;;;;;;3.28;1.30;;;;;;;14.55;54.72;101560.72;4989990;28;114898;-62
2022/05/29 06:24:02;;;;;;;3.08;1.23;;;;;;;14.58;54.58;101555.28;4988409;28;124241;-62
2022/05/29 06:26:30;;;;;;;2.83;1.27;;;;;;;14.60;54.30;101553.41;4988970;28;124527;-62
2022/05/29 06:28:57;;;;;;;2.08;1.15;;;;;;;14.60;54.30;101558.75;4989111;28;114457;-63
2022/05/29 06:31:24;;;;;;;2.08;1.10;;;;;;;14.59;54.33;101559.66;4991054;28;113949;-62
2022/05/29 06:33:52;;;;;;;3.80;1.48;;;;;;;14.59;54.26;101562.34;4988228;28;124079;-63
2022/05/29 06:36:23;;;;;;;2.72;1.10;;;;;;;14.57;54.27;101558.88;4988265;28;124076;-63
2022/05/29 06:38:53;;;;;;;5.05;1.20;;;;;;;14.54;54.20;101567.03;4990873;28;114189;-62
2022/05/29 06:41:22;;;;;;;2.20;1.23;;;;;;;14.51;54.29;101566.31;4989856;28;113685;-62
2022/05/29 06:43:51;;;;;;;2.92;1.17;;;;;;;14.47;54.47;101565.59;4991380;28;123962;-62
2022/05/29 06:46:20;;;;;;;1.55;1.10;;;;;;;14.44;54.52;101563.06;4989641;28;123954;-62
2022/05/29 06:48:48;;;;;;;3.47;1.40;;;;;;;14.40;54.69;101564.16;4988939;28;114483;-62
2022/05/29 06:51:21;;;;;;;3.53;1.40;;;;;;;14.38;54.75;101558.06;4992161;28;114507;-62
2022/05/29 06:53:50;;;;;;;3.05;1.50;;;;;;;14.36;54.65;101557.28;4990346;28;124000;-63
2022/05/29 06:56:18;;;;;;;3.92;1.40;;;;;;;14.35;54.74;101560.84;4988574;28;124049;-62
2022/05/29 06:58:46;;;;;;;2.17;1.40;;;;;;;14.35;54.79;101558.19;4987421;28;115442;-62
2022/05/29 07:07:01;;;;;;;4.53;1.60;;;;;;;14.41;55.01;101560.56;4989719;28;122577;-62
2022/05/29 07:09:41;;;;;;;2.72;1.40;;;;;;;14.43;54.99;101556.03;4981218;28;114120;-63
2022/05/29 07:12:10;;;;;;;3.13;1.60;;;;;;;14.43;55.44;101558.69;4998531;28;114982;-62
2022/05/29 07:14:41;;;;;;;4.45;1.77;;;;;;;14.47;55.39;101557.59;4989502;28;122836;-62
2022/05/29 07:17:10;;;;;;;4.80;1.83;;;;;;;14.51;55.31;101556.50;4989737;28;123016;-62
2022/05/29 07:19:38;;;;;;;2.90;1.85;;;;;;;14.57;55.60;101548.22;4987992;28;114598;-62
2022/05/29 07:22:06;;;;;;;4.60;1.70;;;;;;;14.68;55.74;101549.50;4989966;28;113690;-62
2022/05/29 07:24:35;;;;;;;5.40;1.85;;;;;;;14.76;55.62;101549.97;4991411;28;124316;-62
2022/05/29 07:27:03;;;;;;;4.30;1.95;;;;;;;14.83;55.80;101554.03;4982317;28;123791;-63
2022/05/29 07:29:30;;;;;;;5.15;2.35;;;;;;;14.94;55.81;101545.50;4988201;28;114330;-63
2022/05/29 07:31:57;;;;;;;5.35;1.98;;;;;;;15.09;56.16;101550.00;4989297;28;113985;-63
2022/05/29 07:34:25;;;;;;;3.97;2.15;;;;;;;15.23;56.08;101541.25;4987070;28;124146;-63
2022/05/29 07:36:52;;;;;;;4.97;2.30;;;;;;;15.37;56.01;101544.06;4973229;28;122982;-63
2022/05/29 07:39:20;;;;;;;3.95;2.10;;;;;;;15.48;55.94;101545.28;4987895;28;114271;-63
2022/05/29 07:44:41;;;;;;;5.22;2.17;;;;;;;15.64;55.46;101548.84;4988673;28;125785;-61
2022/05/29 07:47:08;;;;;;;7.10;2.47;;;;;;;15.70;55.31;101556.50;5000334;28;123945;-62
2022/05/29 07:49:38;;;;;;;4.53;2.20;;;;;;;15.81;55.62;101547.09;4990977;28;114884;-61
2022/05/29 07:52:07;;;;;;;3.22;2.30;;;;;;;15.94;55.83;101540.09;4992913;28;115889;-64
2022/05/29 07:54:35;;;;;;;5.43;1.95;;;;;;;16.07;55.53;101538.47;4993835;28;124939;-62
2022/05/29 07:57:03;;;;;;;3.33;2.00;;;;;;;16.13;55.01;101538.09;4989261;28;123732;-61
2022/05/29 07:59:30;;;;;;;3.17;1.70;;;;;;;16.17;54.67;101538.78;4991312;28;115550;-61
2022/05/29 08:01:58;;;;;;;6.55;2.00;;;;;;;16.19;54.36;101536.88;4986684;28;114346;-61
2022/05/29 08:04:27;;;;;;;6.20;2.10;;;;;;;16.17;54.26;101543.28;4992676;28;124301;-61
2022/05/29 08:06:54;;;;;;;3.42;2.10;;;;;;;16.14;54.37;101538.94;4991080;28;124524;-61
2022/05/29 08:09:22;;;;;;;5.65;2.00;;;;;;;16.12;54.29;101531.06;4998250;28;114206;-61
2022/05/29 08:11:50;;;;;;;4.88;2.20;;;;;;;16.12;54.19;101535.50;5012494;28;114402;-61
2022/05/29 08:14:17;;;;;;;5.65;2.00;;;;;;;16.13;54.38;101538.09;4993406;28;124622;-62
2022/05/29 08:16:44;;;;;;;4.13;1.80;;;;;;;16.18;54.38;101534.28;4992783;28;124104;-61
2022/05/29 08:19:12;;;;;;;3.83;1.80;;;;;;;16.23;54.44;101540.25;4991311;28;114917;-61
2022/05/29 08:21:40;;;;;;;2.40;1.40;;;;;;;16.28;54.41;101530.16;4997309;28;114015;-62
2022/05/29 08:32:45;;;;;;;5.65;1.33;;;;;;;16.40;54.04;101534.78;4985046;28;114093;-61
2022/05/29 08:35:12;;;;;;;2.30;1.20;;;;;;;16.41;53.69;101531.16;4991608;28;123559;-61
2022/05/29 08:37:40;;;;;;;2.35;1.10;;;;;;;16.41;53.64;101525.81;4993353;28;123800;-61
2022/05/29 08:40:08;;;;;;;2.60;1.10;;;;;;;16.41;53.72;101535.66;4996191;28;115327;-61
2022/05/29 08:42:35;;;;;;;2.67;0.90;;;;;;;16.39;53.46;101533.06;4991861;28;115305;-61
2022/05/29 08:45:05;;;;;;;3.05;1.10;;;;;;;16.37;53.30;101529.63;4989843;28;123958;-61
2022/05/29 08:47:32;;;;;;;2.97;1.25;;;;;;;16.36;53.27;101527.88;4987884;28;124948;-61
2022/05/29 08:50:02;;;;;;;2.40;1.08;;;;;;;16.38;53.30;101541.16;4989176;28;114504;-61
2022/05/29 08:53:02;;;;;;;2.92;1.10;;;;;;;16.40;53.29;101533.91;4991645;28;113796;-61
2022/05/29 08:55:52;;;;;;;3.72;1.05;;;;;;;16.46;53.43;101523.75;4992167;28;123973;-61
2022/05/29 08:58:30;;;;;;;3.85;1.10;;;;;;;16.53;53.32;101527.75;4991813;28;123777;-60
2022/05/29 09:01:27;;;;;;;5.13;1.10;;;;;;;16.59;53.16;101523.00;4993654;28;114378;-61
2022/05/29 09:04:00;;;;;;;4.32;1.50;;;;;;;16.65;53.27;101527.97;4998889;28;114783;-61
2022/05/29 09:06:35;;;;;;;2.08;1.20;;;;;;;16.71;52.94;101528.47;4995138;28;124090;-61
2022/05/29 09:09:12;;;;;;;3.50;1.42;;;;;;;16.75;52.75;101518.47;4991909;28;123924;-61
2022/05/29 09:11:48;;;;;;;5.63;1.45;;;;;;;16.79;52.58;101513.78;4991392;28;114084;-61
2022/05/29 09:14:23;;;;;;;3.78;1.38;;;;;;;16.82;52.50;101509.16;4990094;28;113865;-60
2022/05/29 09:17:04;;;;;;;4.05;1.33;;;;;;;16.85;52.34;101514.28;4988553;28;123779;-61
2022/05/29 09:19:48;;;;;;;5.53;1.58;;;;;;;16.89;52.23;101507.78;4991322;28;124586;-61
2022/05/29 09:22:21;;;;;;;4.60;1.70;;;;;;;16.91;52.26;101505.91;4991080;28;113639;-61
2022/05/29 09:24:49;;;;;;;4.20;1.60;;;;;;;16.97;52.40;101501.13;4990451;28;114023;-61
2022/05/29 09:27:17;;;;;;;5.32;1.50;;;;;;;17.03;52.33;101500.75;4989916;28;123214;-61
2022/05/29 09:29:44;;;;;;;3.65;1.40;;;;;;;17.07;52.09;101502.28;4990494;28;123913;-61
2022/05/29 09:32:46;;;;;;;5.18;1.65;;;;;;;17.10;52.19;101496.72;4991436;28;116047;-61
2022/05/29 09:35:26;;;;;;;4.68;1.65;;;;;;;17.15;52.16;101494.63;4987080;28;115293;-61
2022/05/29 09:38:33;;;;;;;3.83;1.33;;;;;;;17.23;52.22;101492.31;4987218;28;122963;-61
2022/05/29 09:41:30;;;;;;;4.57;1.48;;;;;;;17.39;52.41;101486.03;4993316;28;124860;-61
2022/05/29 09:44:04;;;;;;;4.13;1.50;;;;;;;17.58;52.32;101481.22;4972161;28;114468;-61
2022/05/29 09:46:33;;;;;;;3.17;0.98;;;;;;;17.78;51.88;101476.38;5004889;28;114338;-61
2022/05/29 09:52:07;;;;;;;3.17;1.20;;;;;;;17.97;51.41;101474.25;4990657;28;124815;-61
2022/05/29 09:54:37;;;;;;;5.15;1.23;;;;;;;18.09;51.48;101470.72;4990467;28;115018;-61
2022/05/29 09:57:19;;;;;;;2.25;1.00;;;;;;;18.23;51.23;101468.94;4991520;28;113166;-61
2022/05/29 09:59:49;;;;;;;5.88;1.00;;;;;;;18.36;50.80;101472.50;4995100;28;124301;-61
2022/05/29 10:02:27;;;;;;;2.90;1.40;;;;;;;18.44;50.59;101459.47;4992096;28;123603;-61
2022/05/29 10:04:59;;;;;;;2.35;0.80;;;;;;;18.49;49.89;101468.03;4990500;28;114144;-61
2022/05/29 10:07:44;;;;;;;4.18;1.02;;;;;;;18.53;49.45;101465.16;4991107;28;114136;-61
2022/05/29 10:10:26;;;;;;;3.28;1.38;;;;;;;18.58;49.79;101460.34;4986994;28;124320;-61
2022/05/29 10:12:58;;;;;;;2.42;1.02;;;;;;;18.69;49.85;101460.44;4980229;28;124701;-61
2022/05/29 10:15:25;;;;;;;5.25;1.30;;;;;;;18.76;49.70;101461.75;4989189;28;114100;-61
2022/05/29 10:17:58;;;;;;;2.97;1.08;;;;;;;18.81;49.49;101456.94;4994149;28;113805;-61
2022/05/29 10:20:38;;;;;;;3.60;1.17;;;;;;;18.80;48.90;101449.84;4988252;28;123978;-62
2022/05/29 10:23:11;;;;;;;2.35;1.00;;;;;;;18.74;48.57;101461.00;4990376;28;122887;-61
2022/05/29 10:25:42;;;;;;;3.10;0.70;;;;;;;18.65;48.35;101462.47;4993014;28;114764;-60
2022/05/29 10:28:15;;;;;;;1.92;0.80;;;;;;;18.56;48.20;101462.25;4986432;28;114860;-61
2022/05/29 10:30:45;;;;;;;1.38;0.60;;;;;;;18.45;48.07;101466.53;4989330;28;124173;-60
2022/05/29 10:33:27;;;;;;;2.33;0.88;;;;;;;18.34;47.99;101458.34;4995922;28;123755;-61
2022/05/29 10:36:11;;;;;;;1.10;0.55;;;;;;;18.21;48.06;101462.81;4990155;28;114278;-61
2022/05/29 10:38:39;;;;;;;1.77;0.60;;;;;;;18.11;48.00;101461.75;4995543;28;113834;-61
2022/05/29 10:41:07;;;;;;;4.82;0.70;;;;;;;18.02;48.15;101464.06;4994079;28;123978;-61
2022/05/29 10:43:51;;;;;;;1.02;0.73;;;;;;;17.96;48.35;101464.47;4992907;28;124709;-61
2022/05/29 10:46:21;;;;;;;2.00;0.60;;;;;;;17.89;48.32;101474.75;4988176;28;114324;-61
2022/05/29 10:49:25;;;;;;;3.50;0.57;;;;;;;17.82;48.14;101465.38;4989633;28;114883;-61
2022/05/29 10:52:09;;;;;;;1.27;0.40;;;;;;;17.74;48.39;101466.81;4990008;28;123955;-61
2022/05/29 10:55:10;;;;;;;2.45;0.60;;;;;;;17.67;48.54;101456.50;4997340;28;124645;-61
2022/05/29 10:57:49;;;;;;;0.68;0.40;;;;;;;17.64;48.66;101464.72;4990477;28;113125;-61
2022/05/29 11:00:38;;;;;;;1.40;0.65;;;;;;;17.66;48.76;101452.09;4987667;28;114370;-61
2022/05/29 11:03:28;;;;;;;0.88;0.50;;;;;;;17.71;49.11;101452.66;5001154;28;124638;-61
2022/05/29 11:06:14;;;;;;;1.23;0.50;;;;;;;17.85;49.17;101445.56;4990668;28;125217;-61
2022/05/29 11:08:52;;;;;;;0.95;0.40;;;;;;;17.94;49.07;101444.97;4991457;28;114354;-61
2022/05/29 11:11:55;;;;;;;1.20;0.45;;;;;;;18.03;49.01;101438.97;4990221;28;114232;-61
2022/05/29 11:14:46;;;;;;;2.67;0.50;;;;;;;18.13;48.86;101443.72;4988803;28;124731;-61
2022/05/29 11:17:42;;;;;;;1.50;0.60;;;;;;;18.20;49.04;101439.69;4988139;28;123987;-61
2022/05/29 11:20:35;;;;;;;1.35;0.65;;;;;;;18.34;49.06;101441.41;5004330;28;115055;-61
2022/05/29 11:23:40;;;;;;;1.20;0.68;;;;;;;18.51;49.35;101437.56;4989151;28;115361;-61
2022/05/29 11:26:44;;;;;;;3.03;0.80;;;;;;;18.68;49.38;101429.19;4991136;28;123032;-61
2022/05/29 11:29:33;;;;;;;2.90;0.90;;;;;;;18.76;48.82;101424.19;4991017;28;124041;-61
2022/05/29 11:32:33;;;;;;;2.35;0.70;;;;;;;18.71;48.43;101445.09;4991900;28;113535;-62
2022/05/29 11:35:23;;;;;;;2.28;0.60;;;;;;;18.40;48.21;101452.59;4993241;28;114242;-61
2022/05/29 11:37:56;;;;;;;1.50;0.60;;;;;;;18.11;48.31;101445.66;4991308;28;124677;-61
2022/05/29 11:40:31;;;;;;;1.70;0.60;;;;;;;17.80;48.66;101442.28;4990569;28;124155;-61
2022/05/29 11:43:05;;;;;;;1.55;0.50;;;;;;;17.56;49.04;101434.91;4981178;28;113088;-62
2022/05/29 11:52:01;;;;;;;2.58;0.80;;;;;;;17.10;50.20;101432.50;4988999;28;123727;-61
2022/05/29 11:54:31;;;;;;;2.28;0.70;;;;;;;17.01;50.55;101422.38;4993154;28;114297;-61
2022/05/29 11:57:07;;;;;;;2.75;0.80;;;;;;;16.96;50.65;101424.50;4994046;28;114056;-61
2022/05/29 12:00:00;;;;;;;2.25;0.80;;;;;;;16.93;51.26;101415.69;5003536;28;124327;-61
2022/05/29 12:02:43;;;;;;;2.75;0.98;;;;;;;16.98;51.63;101412.72;4993485;28;124393;-61
2022/05/29 12:05:44;;;;;;;2.67;1.00;;;;;;;17.08;51.84;101408.53;4987386;28;115104;-61
2022/05/29 12:08:30;;;;;;;3.28;1.10;;;;;;;17.18;51.94;101408.78;4983981;28;114741;-60
2022/05/29 12:11:20;;;;;;;3.28;1.58;;;;;;;17.33;52.32;101406.97;4980841;28;124305;-61
2022/05/29 12:13:57;;;;;;;2.58;1.00;;;;;;;17.50;52.51;101398.69;4983720;28;123760;-60
2022/05/29 12:16:29;;;;;;;5.47;1.30;;;;;;;17.65;52.25;101402.16;4985135;28;115483;-60
2022/05/29 12:19:00;;;;;;;6.15;1.20;;;;;;;17.74;51.87;101399.84;5000834;28;115054;-62
2022/05/29 12:21:38;;;;;;;3.90;0.88;;;;;;;17.71;51.29;101406.25;4981722;28;124065;-60
2022/05/29 12:24:14;;;;;;;5.90;0.98;;;;;;;17.60;50.87;101404.28;4980411;28;122624;-60